Time;durP1;ratioP1;P1;durP2;ratioP2;P2;SDS_P1;SDS_P2;PMS_P1;PMS_P2;Temp;Humidity;BMP_temperature;BMP_pressure;BME280_temperature;BME280_humidity;BME280_pressure;Samples;Min_cycle;Max_cycle;Signal;HPM_P1;HPM_P2
2021/07/04 00:00:30;;;;;;;6.10;5.10;;;;;;;19.87;82.59;99550.16;1707581;82;21573;-73
2021/07/04 00:02:58;;;;;;;6.63;5.27;;;;;;;19.81;82.92;99548.82;1718857;81;21036;-74
2021/07/04 00:05:31;;;;;;;6.63;5.20;;;;;;;19.78;83.16;99554.95;1718770;82;21040;-74
2021/07/04 00:07:58;;;;;;;5.53;4.83;;;;;;;19.78;83.43;99554.95;1708998;82;21464;-73
2021/07/04 00:10:29;;;;;;;6.40;5.50;;;;;;;19.75;83.63;99549.64;1702910;82;21093;-75
2021/07/04 00:12:57;;;;;;;6.70;5.78;;;;;;;19.73;83.90;99551.11;1714469;82;21134;-74
2021/07/04 00:15:26;;;;;;;7.80;5.33;;;;;;;19.65;84.22;99548.77;1715279;82;21075;-74
2021/07/04 00:17:53;;;;;;;6.43;5.23;;;;;;;19.62;84.37;99553.48;1715012;82;21151;-75
2021/07/04 00:20:21;;;;;;;6.07;5.27;;;;;;;19.59;84.59;99545.47;1709696;82;21007;-75
2021/07/04 00:22:48;;;;;;;6.00;5.40;;;;;;;19.56;84.79;99548.08;1712800;81;21047;-74
2021/07/04 00:25:17;;;;;;;8.73;5.50;;;;;;;19.48;85.11;99538.14;1712356;82;21199;-74
2021/07/04 00:27:44;;;;;;;6.40;5.70;;;;;;;19.41;85.40;99538.72;1640711;86;21562;-73
2021/07/04 00:30:13;;;;;;;7.20;5.20;;;;;;;19.35;85.58;99542.24;1650150;84;21115;-74
2021/07/04 00:32:40;;;;;;;6.03;5.30;;;;;;;19.33;85.73;99547.20;1668404;84;21058;-73
2021/07/04 00:35:08;;;;;;;7.20;5.90;;;;;;;19.31;85.98;99547.31;1670615;84;21067;-74
2021/07/04 00:37:35;;;;;;;7.37;5.77;;;;;;;19.28;86.31;99549.34;1680765;84;21435;-74
2021/07/04 00:40:03;;;;;;;7.33;6.03;;;;;;;19.24;86.59;99561.41;1680419;84;21020;-73
2021/07/04 00:42:31;;;;;;;7.37;5.90;;;;;;;19.20;86.88;99557.24;1685276;84;21102;-73
2021/07/04 00:44:59;;;;;;;6.87;6.17;;;;;;;19.19;87.20;99567.07;1683361;84;22232;-73
2021/07/04 00:47:26;;;;;;;6.40;5.77;;;;;;;19.19;87.48;99569.20;1681533;83;21090;-73
2021/07/04 00:49:52;;;;;;;6.80;6.00;;;;;;;19.21;87.65;99567.50;1672477;83;21120;-74
2021/07/04 00:52:20;;;;;;;6.47;5.77;;;;;;;19.22;87.82;99567.75;1672308;83;21301;-73
2021/07/04 00:54:47;;;;;;;6.87;5.80;;;;;;;19.21;87.94;99564.80;1654397;84;21067;-74
2021/07/04 00:57:14;;;;;;;7.97;6.40;;;;;;;19.20;87.99;99563.22;1681303;84;21095;-76
2021/07/04 00:59:41;;;;;;;7.07;5.80;;;;;;;19.20;87.98;99564.58;1676489;84;20991;-75
2021/07/04 01:02:08;;;;;;;7.73;5.87;;;;;;;19.18;88.05;99568.17;1678124;83;21107;-76
2021/07/04 01:04:35;;;;;;;7.87;6.40;;;;;;;19.13;88.15;99572.48;1681878;83;21068;-75
2021/07/04 01:07:03;;;;;;;6.63;5.93;;;;;;;19.11;88.47;99567.38;1676143;83;21094;-75
2021/07/04 01:09:30;;;;;;;6.77;6.07;;;;;;;19.11;88.73;99563.33;1654645;84;21535;-74
2021/07/04 01:11:56;;;;;;;6.73;6.03;;;;;;;19.12;88.88;99564.14;1675574;84;21247;-75
2021/07/04 01:14:24;;;;;;;6.80;6.10;;;;;;;19.12;89.00;99558.73;1673031;84;21159;-75
2021/07/04 01:16:54;;;;;;;7.87;5.60;;;;;;;19.15;89.11;99560.73;1678249;84;21055;-75
2021/07/04 01:19:20;;;;;;;5.83;5.23;;;;;;;19.16;89.19;99554.21;1677885;84;21039;-75
2021/07/04 01:21:48;;;;;;;6.60;5.73;;;;;;;19.18;89.30;99554.10;1667687;84;21723;-75
2021/07/04 01:24:15;;;;;;;7.77;5.87;;;;;;;19.18;89.37;99554.64;1679785;84;21117;-75
2021/07/04 01:26:43;;;;;;;6.43;5.63;;;;;;;19.22;89.44;99555.56;1628048;84;21160;-75
2021/07/04 01:29:10;;;;;;;7.23;5.60;;;;;;;19.26;89.49;99546.98;1673733;83;21100;-75
2021/07/04 01:31:40;;;;;;;6.53;5.83;;;;;;;19.27;89.37;99544.49;1668311;84;21516;-75
2021/07/04 01:34:08;;;;;;;7.93;6.00;;;;;;;19.26;89.34;99544.28;1671669;83;21036;-76
2021/07/04 01:36:38;;;;;;;6.30;5.67;;;;;;;19.23;89.45;99536.83;1677480;84;21008;-74
2021/07/04 01:39:06;;;;;;;6.83;6.13;;;;;;;19.21;89.59;99537.72;1685279;83;21155;-75
2021/07/04 01:41:34;;;;;;;7.50;6.07;;;;;;;19.22;89.59;99535.27;1648862;85;21063;-75
2021/07/04 01:44:03;;;;;;;7.63;6.40;;;;;;;19.23;89.59;99531.42;1677100;84;21090;-74
2021/07/04 01:46:30;;;;;;;6.73;5.93;;;;;;;19.19;89.55;99534.58;1680344;84;21043;-73
2021/07/04 01:48:58;;;;;;;6.50;5.80;;;;;;;19.15;89.60;99540.43;1678558;83;21107;-74
2021/07/04 01:51:26;;;;;;;6.63;5.93;;;;;;;19.12;89.62;99548.69;1682847;83;21119;-73
2021/07/04 01:53:54;;;;;;;6.93;6.23;;;;;;;19.12;89.65;99540.56;1678653;84;21119;-73
2021/07/04 01:56:22;;;;;;;7.37;5.93;;;;;;;19.13;89.63;99544.06;1678886;84;21068;-75
2021/07/04 01:58:52;;;;;;;7.20;6.50;;;;;;;19.15;89.62;99544.48;1679561;83;21528;-74
2021/07/04 02:01:20;;;;;;;7.77;6.07;;;;;;;19.20;89.51;99545.06;1682493;84;21779;-75
2021/07/04 02:03:47;;;;;;;6.77;5.80;;;;;;;19.24;89.48;99543.03;1680756;83;21109;-74
2021/07/04 02:06:15;;;;;;;8.43;6.50;;;;;;;19.26;89.46;99540.22;1682160;84;21036;-75
2021/07/04 02:08:44;;;;;;;6.93;6.10;;;;;;;19.28;89.43;99548.80;1688576;84;21071;-76
2021/07/04 02:11:11;;;;;;;6.53;5.93;;;;;;;19.27;89.29;99558.03;1678424;84;21087;-75
2021/07/04 02:13:41;;;;;;;7.07;5.90;;;;;;;19.28;89.16;99556.11;1685800;83;21121;-75
2021/07/04 02:16:10;;;;;;;6.77;6.07;;;;;;;19.27;89.08;99558.03;1676410;83;21185;-75
2021/07/04 02:18:40;;;;;;;7.27;6.10;;;;;;;19.26;89.01;99557.03;1675353;84;21091;-74
2021/07/04 02:21:20;;;;;;;8.17;6.47;;;;;;;19.26;88.97;99565.94;1656920;84;21150;-74
2021/07/04 02:23:52;;;;;;;6.87;6.23;;;;;;;19.28;89.03;99566.40;1655938;83;21134;-74
2021/07/04 02:26:33;;;;;;;7.43;6.17;;;;;;;19.30;89.03;99571.45;1636926;84;21165;-75
2021/07/04 02:29:02;;;;;;;8.97;5.90;;;;;;;19.31;89.03;99576.52;1676115;83;21816;-75
2021/07/04 02:31:31;;;;;;;6.87;6.17;;;;;;;19.34;89.07;99581.83;1671885;84;21177;-75
2021/07/04 02:33:58;;;;;;;6.83;6.00;;;;;;;19.39;89.10;99582.40;1677503;84;21044;-73
2021/07/04 02:36:27;;;;;;;7.20;6.00;;;;;;;19.43;89.06;99583.29;1679585;83;21086;-74
2021/07/04 02:38:56;;;;;;;7.47;6.30;;;;;;;19.47;88.96;99582.05;1688743;84;21613;-74
2021/07/04 02:41:23;;;;;;;10.27;7.50;;;;;;;19.48;88.87;99588.24;1678771;84;21200;-74
2021/07/04 02:43:51;;;;;;;7.80;6.50;;;;;;;19.52;88.87;99593.23;1689706;84;21191;-75
2021/07/04 02:46:21;;;;;;;7.17;6.37;;;;;;;19.55;88.82;99595.26;1676674;83;21071;-74
2021/07/04 02:48:50;;;;;;;7.20;6.30;;;;;;;19.56;88.76;99591.41;1683482;84;21819;-75
2021/07/04 02:51:17;;;;;;;7.00;6.30;;;;;;;19.57;88.74;99603.81;1685392;84;21083;-75
2021/07/04 02:53:44;;;;;;;7.40;6.47;;;;;;;19.53;88.66;99599.64;1674193;83;21686;-75
2021/07/04 02:56:13;;;;;;;7.57;6.63;;;;;;;19.54;88.71;99599.08;1674697;84;21086;-74
2021/07/04 02:58:40;;;;;;;7.63;6.63;;;;;;;19.53;88.82;99598.86;1683300;83;21151;-74
2021/07/04 03:01:07;;;;;;;7.83;7.00;;;;;;;19.57;88.95;99599.75;1690543;84;21051;-74
2021/07/04 03:03:33;;;;;;;7.60;6.80;;;;;;;19.63;89.02;99604.63;1669646;84;21138;-73
2021/07/04 03:06:02;;;;;;;8.03;6.73;;;;;;;19.69;89.06;99610.61;1677887;83;21625;-75
2021/07/04 03:08:29;;;;;;;8.17;7.10;;;;;;;19.74;89.08;99619.06;1673989;84;21036;-75
2021/07/04 03:10:58;;;;;;;7.80;7.10;;;;;;;19.79;89.12;99616.92;1691377;84;21048;-75
2021/07/04 03:13:26;;;;;;;8.57;6.83;;;;;;;19.85;89.04;99617.48;1682217;84;21173;-75
2021/07/04 03:15:55;;;;;;;8.27;7.47;;;;;;;19.91;88.80;99618.25;1678542;84;21066;-75
2021/07/04 03:18:22;;;;;;;7.57;6.77;;;;;;;19.94;88.43;99614.62;1673993;84;21140;-75
2021/07/04 03:20:48;;;;;;;8.50;6.73;;;;;;;20.00;88.32;99623.52;1689530;83;21102;-74
2021/07/04 03:23:16;;;;;;;7.50;6.70;;;;;;;20.05;88.16;99621.16;1660637;86;21468;-75
2021/07/04 03:25:44;;;;;;;7.03;6.33;;;;;;;20.11;87.99;99619.79;1680794;83;21136;-74
2021/07/04 03:28:13;;;;;;;8.87;7.00;;;;;;;20.21;87.83;99619.87;1680176;83;21067;-75
2021/07/04 03:30:41;;;;;;;7.87;7.17;;;;;;;20.31;87.55;99628.30;1690593;83;21007;-73
2021/07/04 03:33:08;;;;;;;7.60;6.40;;;;;;;20.42;87.00;99634.59;1662580;84;21143;-73
2021/07/04 03:35:35;;;;;;;8.37;6.73;;;;;;;20.48;86.39;99633.21;1681235;83;21162;-73
2021/07/04 03:38:04;;;;;;;9.47;7.00;;;;;;;20.54;85.73;99637.29;1680401;83;21063;-74
2021/07/04 03:40:31;;;;;;;7.20;6.40;;;;;;;20.59;85.31;99635.67;1681529;84;21143;-73
2021/07/04 03:42:59;;;;;;;8.17;6.73;;;;;;;20.62;84.58;99634.97;1684701;84;21983;-75
2021/07/04 03:45:28;;;;;;;10.03;7.20;;;;;;;20.61;84.36;99640.19;1695055;84;21024;-72
2021/07/04 03:47:55;;;;;;;8.03;6.60;;;;;;;20.62;84.19;99645.83;1682779;83;21093;-72
2021/07/04 03:50:24;;;;;;;9.47;6.97;;;;;;;20.67;84.12;99648.30;1685718;84;21095;-73
2021/07/04 03:52:55;;;;;;;7.43;6.40;;;;;;;20.70;83.84;99640.83;1680293;83;21063;-73
2021/07/04 03:55:23;;;;;;;7.17;6.43;;;;;;;20.77;83.83;99647.80;1682308;84;21126;-73
2021/07/04 03:57:52;;;;;;;7.73;6.57;;;;;;;20.83;83.66;99653.20;1673101;83;21035;-73
2021/07/04 04:00:21;;;;;;;8.77;7.53;;;;;;;20.87;83.26;99652.50;1679188;84;21120;-73
2021/07/04 04:02:49;;;;;;;7.70;6.90;;;;;;;20.89;83.22;99661.07;1677475;84;21119;-73
2021/07/04 04:05:18;;;;;;;8.20;7.40;;;;;;;20.93;83.19;99653.83;1677127;84;21664;-74
2021/07/04 04:07:48;;;;;;;8.73;7.53;;;;;;;20.94;83.05;99654.05;1682308;83;21112;-73
2021/07/04 04:10:15;;;;;;;7.10;6.40;;;;;;;20.98;82.93;99654.91;1680969;84;21150;-74
2021/07/04 04:12:44;;;;;;;8.07;6.70;;;;;;;21.05;82.78;99655.09;1683600;84;21554;-74
2021/07/04 04:15:13;;;;;;;9.10;7.60;;;;;;;21.07;82.35;99652.26;1678444;83;20988;-74
2021/07/04 04:17:41;;;;;;;7.90;7.10;;;;;;;21.07;82.10;99652.26;1686824;84;21016;-74
2021/07/04 04:20:11;;;;;;;7.97;7.17;;;;;;;21.07;82.06;99656.91;1683702;84;21104;-72
2021/07/04 04:22:38;;;;;;;8.47;7.40;;;;;;;21.08;82.00;99651.68;1692918;84;21059;-72
2021/07/04 04:25:09;;;;;;;11.47;7.43;;;;;;;21.16;81.96;99654.00;1678127;84;21111;-72
2021/07/04 04:27:38;;;;;;;7.70;6.90;;;;;;;21.25;81.78;99655.98;1682563;83;21008;-74
2021/07/04 04:30:08;;;;;;;8.30;7.50;;;;;;;21.38;81.50;99660.78;1677722;84;21078;-74
2021/07/04 04:32:36;;;;;;;8.27;7.40;;;;;;;21.52;81.22;99658.43;1679437;83;21772;-74
2021/07/04 04:35:07;;;;;;;9.77;6.87;;;;;;;21.65;80.86;99663.16;1669571;84;21586;-73
2021/07/04 04:37:34;;;;;;;8.00;6.70;;;;;;;21.79;80.41;99662.16;1675260;83;21115;-74
2021/07/04 04:40:04;;;;;;;9.90;6.63;;;;;;;21.95;79.96;99662.91;1670883;84;21059;-74
2021/07/04 04:42:34;;;;;;;8.07;7.07;;;;;;;22.10;79.38;99668.64;1719706;82;21542;-73
2021/07/04 04:45:00;;;;;;;10.87;7.23;;;;;;;22.20;78.97;99661.31;1720350;82;21767;-78
2021/07/04 04:47:28;;;;;;;9.27;7.60;;;;;;;22.34;78.46;99662.17;1707935;82;21605;-74
2021/07/04 04:49:54;;;;;;;9.47;7.67;;;;;;;22.46;77.81;99659.31;1725123;82;21103;-74
2021/07/04 04:52:21;;;;;;;8.10;7.30;;;;;;;22.56;77.09;99661.45;1724255;82;21115;-74
2021/07/04 04:54:48;;;;;;;10.13;8.77;;;;;;;22.62;76.30;99651.86;1687744;83;21106;-74
2021/07/04 04:57:15;;;;;;;8.23;7.40;;;;;;;22.68;75.97;99648.27;1675530;83;21102;-74
2021/07/04 04:59:41;;;;;;;10.53;9.43;;;;;;;22.78;76.05;99648.26;1681235;84;21092;-73
2021/07/04 05:02:08;;;;;;;10.20;9.13;;;;;;;22.82;75.68;99658.05;1677695;84;21559;-74
2021/07/04 05:04:36;;;;;;;10.47;9.40;;;;;;;22.86;75.46;99652.67;1675291;83;21090;-74
2021/07/04 05:07:03;;;;;;;11.20;10.10;;;;;;;22.88;75.08;99650.39;1673234;84;21636;-73
2021/07/04 05:09:30;;;;;;;12.43;10.20;;;;;;;22.95;74.94;99649.17;1679844;84;21151;-74
2021/07/04 05:11:57;;;;;;;11.30;10.07;;;;;;;23.00;74.65;99646.72;1714931;82;21114;-75
2021/07/04 05:14:24;;;;;;;10.20;9.20;;;;;;;23.06;74.34;99641.19;1713337;82;21059;-76
2021/07/04 05:16:51;;;;;;;11.93;9.63;;;;;;;23.07;73.98;99647.64;1720177;82;21151;-75
2021/07/04 05:19:17;;;;;;;11.67;8.83;;;;;;;23.06;73.76;99650.14;1716486;82;21538;-75
2021/07/04 05:21:45;;;;;;;9.57;8.27;;;;;;;23.08;73.71;99650.57;1715578;82;21099;-78
2021/07/04 05:24:12;;;;;;;8.90;7.33;;;;;;;23.14;73.41;99653.79;1709924;82;21036;-76
2021/07/04 05:26:40;;;;;;;10.03;8.30;;;;;;;23.20;73.34;99651.53;1707556;82;21618;-75
2021/07/04 05:29:07;;;;;;;9.43;8.00;;;;;;;23.27;73.25;99654.39;1721795;81;21608;-74
2021/07/04 05:31:34;;;;;;;9.83;8.37;;;;;;;23.37;72.77;99649.69;1713192;82;21007;-74
2021/07/04 05:34:01;;;;;;;9.13;7.90;;;;;;;23.47;72.37;99657.24;1728206;82;21105;-74
2021/07/04 05:36:27;;;;;;;10.20;8.13;;;;;;;23.56;72.24;99657.78;1712706;82;22564;-74
2021/07/04 05:38:54;;;;;;;8.40;7.50;;;;;;;23.62;71.98;99645.97;1724836;82;21044;-73
2021/07/04 05:41:20;;;;;;;8.90;7.57;;;;;;;23.68;72.12;99654.62;1713072;81;21060;-74
2021/07/04 05:43:47;;;;;;;9.53;7.93;;;;;;;23.79;71.67;99648.22;1733162;82;21016;-73
2021/07/04 05:46:14;;;;;;;8.13;7.30;;;;;;;23.94;71.54;99653.86;1707146;82;21462;-74
2021/07/04 05:48:44;;;;;;;9.63;8.10;;;;;;;23.99;70.65;99651.61;1708035;81;21578;-74
2021/07/04 05:51:11;;;;;;;10.93;9.83;;;;;;;24.05;70.44;99647.95;1723148;82;21630;-73
2021/07/04 05:53:37;;;;;;;9.97;8.50;;;;;;;24.17;70.09;99645.00;1710050;82;21035;-74
2021/07/04 05:56:04;;;;;;;12.20;11.00;;;;;;;24.29;69.63;99641.27;1721348;82;21091;-74
2021/07/04 05:58:31;;;;;;;14.40;11.07;;;;;;;24.32;68.94;99637.80;1714896;82;22203;-74
2021/07/04 06:00:58;;;;;;;12.83;11.53;;;;;;;24.35;68.91;99631.59;1720782;82;21055;-73
2021/07/04 06:03:24;;;;;;;15.37;13.87;;;;;;;24.40;68.64;99629.88;1670126;84;21530;-75
2021/07/04 06:05:51;;;;;;;15.50;12.87;;;;;;;24.38;68.18;99629.45;1667252;83;21075;-75
2021/07/04 06:08:20;;;;;;;14.53;13.00;;;;;;;24.33;68.18;99626.49;1673740;84;22427;-77
2021/07/04 06:10:50;;;;;;;15.27;13.77;;;;;;;24.36;68.58;99626.33;1680988;83;21083;-74
2021/07/04 06:13:16;;;;;;;16.20;14.50;;;;;;;24.46;68.84;99627.64;1687010;84;21043;-75
2021/07/04 06:15:43;;;;;;;15.37;13.77;;;;;;;24.60;68.22;99624.27;1686755;83;21150;-76
2021/07/04 06:18:10;;;;;;;14.03;12.13;;;;;;;24.67;67.41;99627.08;1693788;84;21051;-75
2021/07/04 06:20:36;;;;;;;13.77;12.30;;;;;;;24.68;67.24;99626.72;1682911;83;21109;-75
2021/07/04 06:23:03;;;;;;;13.87;12.57;;;;;;;24.75;67.03;99635.56;1679012;84;21783;-76
2021/07/04 06:25:30;;;;;;;14.20;12.70;;;;;;;24.84;66.78;99634.66;1714990;82;21492;-75
2021/07/04 06:27:56;;;;;;;11.13;10.03;;;;;;;24.87;66.66;99635.27;1716604;82;21032;-75
2021/07/04 06:30:23;;;;;;;14.20;12.80;;;;;;;24.94;66.77;99635.36;1715153;81;21067;-75
2021/07/04 06:32:50;;;;;;;13.20;11.90;;;;;;;25.02;66.46;99634.25;1717005;82;21608;-75
2021/07/04 06:35:17;;;;;;;14.77;13.27;;;;;;;25.11;65.69;99630.43;1724714;82;21457;-74
2021/07/04 06:37:44;;;;;;;12.97;11.77;;;;;;;25.16;65.67;99627.36;1719441;81;21012;-76
2021/07/04 06:40:13;;;;;;;15.17;13.50;;;;;;;25.18;65.77;99623.68;1715037;81;21087;-74
2021/07/04 06:42:40;;;;;;;14.23;12.83;;;;;;;25.13;65.03;99630.84;1713644;82;21117;-74
2021/07/04 06:45:12;;;;;;;14.13;12.50;;;;;;;25.07;65.71;99629.59;1731658;82;21075;-74
2021/07/04 06:47:39;;;;;;;13.53;12.13;;;;;;;25.06;65.56;99627.45;1714316;82;21036;-74
2021/07/04 06:50:06;;;;;;;12.63;11.33;;;;;;;25.06;65.79;99620.61;1725467;82;21301;-75
2021/07/04 06:52:34;;;;;;;12.60;11.40;;;;;;;25.10;65.97;99618.69;1704071;82;21040;-75
2021/07/04 06:55:01;;;;;;;13.60;12.30;;;;;;;25.21;65.47;99628.39;1692457;82;21031;-75
2021/07/04 06:57:28;;;;;;;13.40;12.07;;;;;;;25.28;64.50;99620.25;1716108;82;21171;-74
2021/07/04 07:00:01;;;;;;;13.87;12.47;;;;;;;25.27;64.99;99617.29;1721914;81;21097;-74
2021/07/04 07:02:28;;;;;;;12.60;11.40;;;;;;;25.34;65.05;99616.59;1720376;82;21055;-75
2021/07/04 07:04:55;;;;;;;11.73;10.63;;;;;;;25.42;65.27;99616.23;1716039;82;21019;-74
2021/07/04 07:07:22;;;;;;;14.30;12.80;;;;;;;25.47;64.83;99615.89;1713594;82;21131;-75
2021/07/04 07:09:51;;;;;;;12.37;11.17;;;;;;;25.50;65.01;99617.06;1723252;81;21071;-75
2021/07/04 07:12:18;;;;;;;11.37;10.27;;;;;;;25.62;64.69;99615.98;1715926;82;21140;-75
2021/07/04 07:14:44;;;;;;;13.40;11.93;;;;;;;25.79;63.63;99619.98;1717831;82;21476;-74
2021/07/04 07:17:11;;;;;;;11.60;10.50;;;;;;;25.88;63.13;99612.25;1720163;82;21036;-76
2021/07/04 07:19:38;;;;;;;11.50;10.30;;;;;;;25.89;62.39;99615.95;1714405;82;21083;-74
2021/07/04 07:22:08;;;;;;;11.43;10.23;;;;;;;25.88;62.09;99611.66;1666423;83;20978;-74
2021/07/04 07:24:35;;;;;;;10.93;9.87;;;;;;;25.85;61.41;99617.89;1682227;84;21209;-74
2021/07/04 07:27:02;;;;;;;10.73;9.73;;;;;;;25.83;62.23;99614.78;1720315;82;21031;-73
2021/07/04 07:29:28;;;;;;;10.60;9.53;;;;;;;25.91;61.08;99615.59;1711871;82;21009;-75
2021/07/04 07:31:56;;;;;;;10.70;9.60;;;;;;;26.03;60.55;99613.08;1716819;82;48267;-74
2021/07/04 07:34:22;;;;;;;8.53;7.63;;;;;;;26.20;60.77;99620.02;1717311;82;21083;-75
2021/07/04 07:36:50;;;;;;;7.27;6.20;;;;;;;26.35;59.38;99616.73;1709897;82;21080;-74
2021/07/04 07:39:18;;;;;;;7.80;7.10;;;;;;;26.50;58.25;99616.23;1719453;81;21641;-73
2021/07/04 07:41:45;;;;;;;7.30;6.60;;;;;;;26.60;57.93;99611.36;1712526;82;21056;-75
2021/07/04 07:44:14;;;;;;;8.03;7.33;;;;;;;26.71;57.23;99614.11;1684442;84;21606;-72
2021/07/04 07:46:43;;;;;;;10.00;9.00;;;;;;;26.76;57.18;99602.78;1689828;84;21086;-75
2021/07/04 07:49:11;;;;;;;9.53;8.63;;;;;;;26.79;57.28;99603.97;1667470;84;21131;-74
2021/07/04 07:51:42;;;;;;;9.57;8.63;;;;;;;26.77;57.76;99611.19;1680011;83;21094;-73
2021/07/04 07:54:11;;;;;;;9.97;8.43;;;;;;;26.82;57.54;99612.19;1670661;84;21058;-75
2021/07/04 07:56:38;;;;;;;9.77;8.73;;;;;;;26.78;57.52;99611.96;1666918;84;21318;-74
2021/07/04 07:59:04;;;;;;;9.97;8.97;;;;;;;26.75;57.78;99603.96;1673973;84;21527;-74
2021/07/04 08:01:31;;;;;;;9.07;8.23;;;;;;;26.71;57.67;99608.62;1668891;84;21158;-74
2021/07/04 08:03:58;;;;;;;10.07;9.07;;;;;;;26.58;58.40;99619.16;1685752;84;21158;-77
2021/07/04 08:06:25;;;;;;;9.67;8.67;;;;;;;26.55;58.40;99617.20;1693628;84;21585;-75
2021/07/04 08:08:52;;;;;;;9.70;8.77;;;;;;;26.60;58.55;99616.05;1674822;84;21094;-75
2021/07/04 08:11:20;;;;;;;9.50;8.10;;;;;;;26.59;58.17;99618.02;1676196;83;21170;-75
2021/07/04 08:13:49;;;;;;;11.83;8.83;;;;;;;26.58;58.27;99627.97;1678521;84;21044;-75
2021/07/04 08:16:17;;;;;;;9.07;8.17;;;;;;;26.56;58.27;99622.12;1710909;82;21044;-76
2021/07/04 08:18:46;;;;;;;9.00;8.10;;;;;;;26.59;58.17;99635.04;1723725;82;21111;-74
2021/07/04 08:21:13;;;;;;;8.30;7.50;;;;;;;26.60;58.22;99631.12;1715241;82;21107;-75
2021/07/04 08:23:40;;;;;;;8.53;7.67;;;;;;;26.61;58.06;99627.20;1720405;82;21047;-74
2021/07/04 08:26:07;;;;;;;8.57;7.77;;;;;;;26.71;57.87;99625.66;1713346;82;21816;-74
2021/07/04 08:28:34;;;;;;;8.33;7.47;;;;;;;26.78;57.82;99618.22;1711167;82;21622;-74
2021/07/04 08:31:01;;;;;;;9.23;8.33;;;;;;;26.78;57.58;99618.81;1711126;82;21028;-75
2021/07/04 08:33:28;;;;;;;8.57;7.77;;;;;;;26.78;57.82;99629.77;1715567;81;21071;-75
2021/07/04 08:35:56;;;;;;;7.73;7.03;;;;;;;26.83;57.33;99628.81;1691413;84;21094;-72
2021/07/04 08:38:23;;;;;;;9.23;8.37;;;;;;;26.89;57.04;99631.37;1681642;84;21165;-74
2021/07/04 08:40:50;;;;;;;9.07;8.10;;;;;;;26.98;56.56;99631.55;1679981;84;21070;-74
2021/07/04 08:43:35;;;;;;;9.00;8.13;;;;;;;27.00;56.55;99636.07;1677331;83;21096;-74
2021/07/04 08:46:04;;;;;;;8.70;7.90;;;;;;;27.02;56.87;99629.03;1682939;84;21650;-74
2021/07/04 08:48:34;;;;;;;9.93;7.85;;;;;;;27.07;57.11;99623.73;1682171;83;26832;-72
2021/07/04 08:51:00;;;;;;;8.00;7.27;;;;;;;27.10;56.08;99628.44;1672981;83;21126;-73
2021/07/04 08:53:27;;;;;;;7.83;7.03;;;;;;;27.19;55.92;99632.97;1677999;83;21098;-73
2021/07/04 08:55:54;;;;;;;8.27;7.50;;;;;;;27.27;55.73;99633.16;1673372;83;21029;-73
2021/07/04 08:58:23;;;;;;;8.03;7.23;;;;;;;27.28;55.66;99627.89;1679277;83;21739;-73
2021/07/04 09:01:14;;;;;;;8.27;7.10;;;;;;;27.42;55.32;99631.20;1675922;83;21493;-73
2021/07/04 09:03:49;;;;;;;7.90;7.10;;;;;;;27.71;55.05;99623.71;1673501;83;21129;-72
2021/07/04 09:06:44;;;;;;;7.83;7.00;;;;;;;28.05;53.86;99624.02;1672712;83;20966;-74
2021/07/04 09:09:28;;;;;;;7.27;6.57;;;;;;;28.20;53.30;99621.20;1682107;84;21037;-73
2021/07/04 09:12:06;;;;;;;7.90;6.33;;;;;;;28.46;52.89;99620.73;1683665;85;21461;-73
2021/07/04 09:14:45;;;;;;;7.33;6.37;;;;;;;28.64;52.58;99625.33;1676281;83;21533;-73
2021/07/04 09:17:16;;;;;;;7.28;6.37;;;;;;;28.72;51.61;99626.23;1676581;83;27895;-73
2021/07/04 09:19:57;;;;;;;7.40;6.28;;;;;;;28.75;50.88;99625.43;1672413;83;21033;-73
2021/07/04 09:22:28;;;;;;;8.23;7.10;;;;;;;28.74;50.48;99629.38;1678521;83;21139;-73
2021/07/04 09:24:54;;;;;;;;;;;;;;;28.68;50.41;99627.45;1679587;83;21502;-73
2021/07/04 09:27:21;;;;;;;7.87;6.70;;;;;;;28.53;50.06;99624.03;1618583;85;20502;-74
2021/07/04 09:29:52;;;;;;;6.63;5.93;;;;;;;28.37;50.50;99625.06;1661350;84;21056;-72
2021/07/04 09:32:26;;;;;;;7.23;6.40;;;;;;;28.38;50.98;99622.50;1676277;83;21135;-74
2021/07/04 09:35:07;;;;;;;7.47;6.70;;;;;;;28.45;50.20;99622.48;1650782;85;21117;-75
2021/07/04 09:37:40;;;;;;;7.20;6.50;;;;;;;28.49;49.66;99613.03;1632081;85;21125;-74
2021/07/04 09:40:24;;;;;;;7.10;6.40;;;;;;;28.56;49.92;99614.18;1653234;85;21265;-73
2021/07/04 09:42:56;;;;;;;7.17;5.70;;;;;;;28.69;49.60;99614.70;1651456;85;21173;-73
2021/07/04 09:45:24;;;;;;;9.40;6.60;;;;;;;28.89;49.56;99608.66;1644670;85;21080;-74
2021/07/04 09:47:56;;;;;;;6.90;5.97;;;;;;;29.01;49.35;99608.20;1651496;85;21151;-75
2021/07/04 09:50:24;;;;;;;6.90;6.20;;;;;;;29.17;48.83;99607.08;1677405;83;21087;-73
2021/07/04 09:52:59;;;;;;;6.65;6.05;;;;;;;29.27;48.07;99606.02;1665364;85;21158;-74
2021/07/04 09:55:26;;;;;;;6.53;5.83;;;;;;;29.18;47.49;99607.86;1642745;85;21155;-72
2021/07/04 09:58:02;;;;;;;8.03;6.42;;;;;;;29.08;48.29;99607.36;1645361;85;21111;-72
2021/07/04 10:00:31;;;;;;;6.90;6.30;;;;;;;29.04;48.02;99600.52;1653790;85;21167;-73
2021/07/04 10:03:19;;;;;;;7.03;6.33;;;;;;;29.04;48.09;99601.12;1678227;83;20996;-73
2021/07/04 10:06:01;;;;;;;6.55;5.83;;;;;;;29.01;48.21;99594.45;1652042;85;21030;-73
2021/07/04 10:08:33;;;;;;;6.25;5.65;;;;;;;29.04;47.82;99595.62;1640315;86;21832;-74
2021/07/04 10:11:14;;;;;;;6.22;5.60;;;;;;;28.96;48.35;99598.40;1654154;85;21024;-73
2021/07/04 10:13:45;;;;;;;7.10;6.42;;;;;;;29.03;48.51;99603.09;1655529;85;21123;-74
2021/07/04 10:16:14;;;;;;;;;;;;;;;29.19;47.45;99599.22;1647239;85;21055;-72
2021/07/04 10:18:43;;;;;;;6.97;6.28;;;;;;;29.29;47.39;99597.56;1651036;86;20179;-73
2021/07/04 10:21:10;;;;;;;6.80;6.10;;;;;;;29.42;47.75;99599.98;1650666;85;21154;-73
2021/07/04 10:23:37;;;;;;;6.60;5.85;;;;;;;29.52;46.59;99594.19;1652457;86;21613;-73
2021/07/04 10:26:05;;;;;;;6.20;5.60;;;;;;;29.54;47.18;99595.92;1655371;84;21026;-72
2021/07/04 10:28:41;;;;;;;5.95;5.35;;;;;;;29.65;46.96;99589.75;1682242;84;21033;-73
2021/07/04 10:31:16;;;;;;;5.15;4.65;;;;;;;29.81;45.60;99586.44;1676879;85;20952;-72
2021/07/04 10:33:44;;;;;;;6.15;5.53;;;;;;;29.84;45.32;99584.20;1678754;84;21907;-72
2021/07/04 10:36:20;;;;;;;6.55;5.87;;;;;;;29.82;45.12;99585.83;1680375;84;21048;-73
2021/07/04 10:38:56;;;;;;;6.60;5.90;;;;;;;29.79;45.49;99573.66;1676598;85;21056;-73
2021/07/04 10:41:33;;;;;;;6.08;5.37;;;;;;;29.84;44.64;99571.05;1665833;84;21642;-73
2021/07/04 10:44:05;;;;;;;5.85;5.22;;;;;;;29.94;45.71;99569.35;1669033;83;21132;-73
2021/07/04 10:46:48;;;;;;;7.05;5.55;;;;;;;30.06;44.97;99572.94;1681375;83;21181;-73
2021/07/04 10:49:20;;;;;;;6.03;5.42;;;;;;;30.05;44.31;99574.92;1683120;85;21509;-72
2021/07/04 10:51:59;;;;;;;5.87;5.28;;;;;;;29.94;44.04;99571.50;1667354;84;21027;-73
2021/07/04 10:54:48;;;;;;;6.17;5.40;;;;;;;29.94;44.04;99567.37;1643542;84;21612;-72
2021/07/04 10:57:29;;;;;;;6.03;5.30;;;;;;;30.06;44.19;99559.95;1656627;85;21091;-72
2021/07/04 11:00:07;;;;;;;6.30;5.70;;;;;;;30.36;44.63;99557.78;1629410;87;21154;-73
2021/07/04 11:02:41;;;;;;;5.67;5.17;;;;;;;30.55;43.35;99556.33;1649259;85;21070;-73
2021/07/04 11:05:38;;;;;;;7.03;5.20;;;;;;;30.63;43.73;99556.22;1654268;85;21115;-72
2021/07/04 11:08:13;;;;;;;5.70;5.20;;;;;;;30.78;43.50;99555.61;1675638;83;21606;-74
2021/07/04 11:11:01;;;;;;;7.33;5.40;;;;;;;31.00;43.60;99551.13;1641137;86;21206;-73
2021/07/04 11:13:33;;;;;;;6.20;5.60;;;;;;;31.08;42.56;99553.32;1651097;85;21121;-73
2021/07/04 11:16:10;;;;;;;6.17;5.58;;;;;;;31.18;42.31;99546.66;1654252;85;21128;-74
2021/07/04 11:18:46;;;;;;;5.75;5.25;;;;;;;31.20;41.31;99548.41;1674212;83;21688;-72
2021/07/04 11:21:21;;;;;;;8.35;5.55;;;;;;;31.08;42.12;99542.89;1663052;84;21042;-75
2021/07/04 11:24:13;;;;;;;5.72;5.10;;;;;;;31.05;42.13;99547.27;1665107;84;20989;-73
2021/07/04 11:26:40;;;;;;;6.00;5.42;;;;;;;31.01;42.72;99541.64;1652240;84;21454;-73
2021/07/04 11:29:11;;;;;;;5.83;5.22;;;;;;;30.88;42.62;99542.84;1672231;84;21102;-73
2021/07/04 11:31:43;;;;;;;6.10;5.53;;;;;;;30.73;42.53;99547.77;1665235;85;21018;-72
2021/07/04 11:34:09;;;;;;;5.75;5.25;;;;;;;30.70;43.37;99541.74;1659764;84;21091;-72
2021/07/04 11:36:36;;;;;;;5.92;5.00;;;;;;;30.65;44.11;99541.44;1658324;84;21214;-72
2021/07/04 11:39:08;;;;;;;6.15;4.95;;;;;;;30.58;44.19;99543.09;1661786;84;21836;-73
2021/07/04 11:41:46;;;;;;;6.80;5.85;;;;;;;30.67;44.03;99537.64;1655611;84;21029;-72